Time;durP1;ratioP1;P1;durP2;ratioP2;P2;SDS_P1;SDS_P2;PMS_P1;PMS_P2;Temp;Humidity;BMP_temperature;BMP_pressure;BME280_temperature;BME280_humidity;BME280_pressure;Samples;Min_cycle;Max_cycle;Signal;HPM_P1;HPM_P2
2022/07/28 00:02:19;;;;;;;4.53;2.85;;;;;;;19.64;86.78;100274.37;1703063;82;21023;-66
2022/07/28 00:04:46;;;;;;;2.30;1.85;;;;;;;19.59;87.05;100282.44;1699558;83;21040;-67
2022/07/28 00:07:12;;;;;;;2.20;2.00;;;;;;;19.57;87.38;100279.16;1696533;82;21573;-67
2022/07/28 00:09:38;;;;;;;2.35;1.80;;;;;;;19.60;87.20;100279.19;1675794;85;20975;-71
2022/07/28 00:12:06;;;;;;;2.45;2.08;;;;;;;19.60;87.02;100277.84;1674953;83;21001;-68
2022/07/28 00:14:33;;;;;;;1.98;1.47;;;;;;;19.61;86.80;100278.95;1677308;85;21036;-67
2022/07/28 00:16:59;;;;;;;1.95;1.42;;;;;;;19.59;86.95;100285.65;1665827;85;21181;-67
2022/07/28 00:19:26;;;;;;;1.77;1.62;;;;;;;19.54;87.39;100287.77;1672687;85;21144;-68
2022/07/28 00:21:52;;;;;;;2.15;1.67;;;;;;;19.56;87.07;100288.33;1713596;82;21011;-68
2022/07/28 00:24:22;;;;;;;2.12;1.98;;;;;;;19.56;87.00;100284.27;1687605;84;20969;-68
2022/07/28 00:26:48;;;;;;;2.17;1.95;;;;;;;19.55;86.97;100287.22;1689742;84;21141;-69
2022/07/28 00:29:14;;;;;;;1.87;1.77;;;;;;;19.52;87.15;100285.84;1693867;84;21549;-68
2022/07/28 00:31:41;;;;;;;2.10;1.85;;;;;;;19.51;86.85;100289.60;1698313;84;21526;-68
2022/07/28 00:34:07;;;;;;;;;;;;;;;19.51;87.12;100292.30;1713006;83;20998;-68
2022/07/28 00:36:34;;;;;;;2.75;1.80;;;;;;;19.51;87.00;100292.30;1714528;83;20288;-69
2022/07/28 00:39:00;;;;;;;2.65;2.20;;;;;;;19.44;87.03;100284.38;1721235;83;21109;-68
2022/07/28 00:41:26;;;;;;;3.67;2.37;;;;;;;19.45;87.00;100285.20;1721015;83;21064;-68
2022/07/28 00:43:52;;;;;;;;;;;;;;;19.47;86.92;100283.60;1722323;83;21558;-67
2022/07/28 00:46:21;;;;;;;4.85;2.40;;;;;;;19.47;87.09;100283.60;1720999;81;20171;-67
2022/07/28 00:48:51;;;;;;;2.25;2.08;;;;;;;19.40;87.07;100283.77;1712019;83;20986;-68
2022/07/28 00:51:21;;;;;;;3.62;2.80;;;;;;;19.37;87.20;100288.33;1720220;83;21006;-71
2022/07/28 00:53:47;;;;;;;2.75;2.52;;;;;;;19.34;87.14;100291.52;1718189;83;20994;-68
2022/07/28 00:56:14;;;;;;;3.00;1.87;;;;;;;19.28;87.20;100290.63;1720423;81;21020;-67
2022/07/28 00:58:41;;;;;;;2.42;2.22;;;;;;;19.25;87.55;100291.95;1715286;82;21530;-68
2022/07/28 01:01:10;;;;;;;3.02;2.10;;;;;;;19.28;87.74;100287.92;1718926;83;21000;-66
2022/07/28 01:03:41;;;;;;;2.75;2.55;;;;;;;19.31;87.25;100290.65;1719072;83;21029;-68
2022/07/28 01:06:46;;;;;;;3.05;2.12;;;;;;;19.31;87.25;100286.59;1717750;83;21524;-68
2022/07/28 01:09:43;;;;;;;5.50;2.62;;;;;;;19.29;87.20;100286.03;1711736;83;21046;-69
2022/07/28 01:12:43;;;;;;;2.85;2.62;;;;;;;19.24;87.42;100294.89;1675330;84;21096;-68
2022/07/28 01:15:23;;;;;;;3.35;3.05;;;;;;;19.21;87.83;100302.97;1599496;89;21046;-69
2022/07/28 01:18:06;;;;;;;4.10;3.00;;;;;;;19.18;87.62;100299.94;1681730;82;21129;-68
2022/07/28 01:20:47;;;;;;;2.62;2.27;;;;;;;19.16;87.89;100301.53;1712151;82;21042;-68
2022/07/28 01:23:34;;;;;;;3.17;2.52;;;;;;;19.12;87.91;100297.69;1692383;82;21013;-68
2022/07/28 01:26:24;;;;;;;;;;;;;;;19.07;88.24;100294.89;1696960;82;21030;-70
2022/07/28 01:29:15;;;;;;;2.08;1.72;;;;;;;18.99;88.42;100299.37;1723548;82;20181;-70
2022/07/28 01:31:50;;;;;;;1.92;1.37;;;;;;;18.86;89.45;100298.61;1715909;82;21561;-67
2022/07/28 01:34:22;;;;;;;2.33;2.12;;;;;;;18.83;89.30;100304.48;1687903;82;21535;-67
2022/07/28 01:37:00;;;;;;;3.35;1.75;;;;;;;18.81;89.56;100294.46;1713819;82;21043;-68
2022/07/28 01:39:31;;;;;;;1.98;1.82;;;;;;;18.78;89.75;100303.03;1714160;82;21042;-68
2022/07/28 01:42:00;;;;;;;1.85;1.55;;;;;;;18.77;89.85;100301.92;1682313;84;21102;-68
2022/07/28 01:44:28;;;;;;;4.35;1.77;;;;;;;18.75;90.01;100308.10;1674114;84;21048;-68
2022/07/28 01:46:56;;;;;;;1.52;1.42;;;;;;;18.72;89.85;100308.03;1658866;85;21091;-67
2022/07/28 01:49:26;;;;;;;2.83;1.12;;;;;;;18.67;90.18;100305.27;1666147;85;21003;-66
2022/07/28 01:51:55;;;;;;;1.87;1.62;;;;;;;18.65;90.46;100307.39;1715530;82;21080;-73
2022/07/28 01:54:26;;;;;;;1.92;1.72;;;;;;;18.64;90.67;100303.85;1714601;82;21007;-68
2022/07/28 01:56:53;;;;;;;3.85;1.80;;;;;;;18.64;90.73;100313.84;1715373;83;21031;-70
2022/07/28 01:59:22;;;;;;;2.37;1.60;;;;;;;18.58;90.84;100318.33;1715387;82;21000;-70
2022/07/28 02:01:50;;;;;;;3.58;1.60;;;;;;;18.52;91.24;100313.09;1716566;82;20991;-67
2022/07/28 02:04:19;;;;;;;1.77;1.70;;;;;;;18.48;91.22;100318.96;1681008;85;21080;-68
2022/07/28 02:06:47;;;;;;;4.53;2.00;;;;;;;18.50;91.40;100325.47;1680864;85;21722;-67
2022/07/28 02:09:16;;;;;;;1.95;1.37;;;;;;;18.51;91.46;100326.28;1675250;84;21132;-69
2022/07/28 02:11:45;;;;;;;1.75;1.50;;;;;;;18.51;91.59;100316.30;1661009;84;21126;-66
2022/07/28 02:14:22;;;;;;;4.62;1.75;;;;;;;18.52;91.63;100323.34;1674548;84;21058;-67
2022/07/28 02:16:58;;;;;;;2.70;1.72;;;;;;;18.53;91.70;100319.57;1684115;84;21176;-69
2022/07/28 02:19:26;;;;;;;1.85;1.30;;;;;;;18.54;91.51;100321.77;1678469;84;21614;-68
2022/07/28 02:21:54;;;;;;;1.15;1.00;;;;;;;18.55;91.84;100316.64;1655348;84;21493;-69
2022/07/28 02:24:27;;;;;;;1.72;1.62;;;;;;;18.57;91.75;100313.16;1682110;84;21068;-68
2022/07/28 02:27:05;;;;;;;1.27;1.20;;;;;;;18.58;90.97;100316.16;1676626;84;20982;-67
2022/07/28 02:29:39;;;;;;;1.40;1.40;;;;;;;18.55;90.98;100310.70;1702864;84;21073;-66
2022/07/28 02:32:48;;;;;;;3.42;1.75;;;;;;;18.51;90.80;100319.53;1671578;85;21010;-68
2022/07/28 02:37:44;;;;;;;1.35;1.30;;;;;;;18.48;90.93;100326.25;1766274;78;23109;-66
2022/07/28 02:40:14;;;;;;;0.93;0.93;;;;;;;18.38;90.96;100338.17;1751618;80;21088;-67
2022/07/28 02:42:43;;;;;;;1.30;1.30;;;;;;;18.33;91.35;100342.95;1750437;81;21017;-72
2022/07/28 02:45:12;;;;;;;1.07;1.00;;;;;;;18.36;91.49;100343.80;1727236;81;21058;-68
2022/07/28 02:47:44;;;;;;;1.75;1.65;;;;;;;18.39;90.96;100345.23;1700446;83;21026;-70
2022/07/28 02:50:13;;;;;;;1.40;1.30;;;;;;;18.39;90.99;100350.62;1700151;83;21563;-68
2022/07/28 02:52:42;;;;;;;0.93;0.93;;;;;;;18.42;90.91;100347.42;1701574;83;21069;-67
2022/07/28 02:55:12;;;;;;;1.70;1.45;;;;;;;18.45;90.83;100344.26;1701206;83;21994;-67
2022/07/28 02:57:41;;;;;;;1.82;1.67;;;;;;;18.54;90.77;100344.70;1696264;83;21018;-66
2022/07/28 03:00:10;;;;;;;1.77;1.67;;;;;;;18.63;90.32;100343.27;1687499;83;21089;-67
2022/07/28 03:02:40;;;;;;;2.55;1.17;;;;;;;18.71;89.43;100344.75;1690645;83;21479;-67
2022/07/28 03:05:10;;;;;;;1.92;1.72;;;;;;;18.76;89.36;100346.17;1694679;83;21060;-69
2022/07/28 03:07:37;;;;;;;1.50;1.40;;;;;;;18.91;88.73;100349.20;1684891;83;21614;-69
2022/07/28 03:10:04;;;;;;;2.83;2.15;;;;;;;19.26;87.25;100351.66;1686831;83;21057;-70
2022/07/28 03:12:31;;;;;;;3.80;3.05;;;;;;;19.57;84.85;100349.45;1685060;84;21093;-69
2022/07/28 03:14:58;;;;;;;7.87;3.98;;;;;;;19.69;83.35;100349.34;1658162;85;20999;-67
2022/07/28 03:17:24;;;;;;;4.33;4.03;;;;;;;19.67;82.63;100354.73;1656054;86;21157;-67
2022/07/28 03:19:50;;;;;;;6.35;5.85;;;;;;;19.59;82.90;100351.89;1645743;85;21332;-67
2022/07/28 03:22:16;;;;;;;10.35;8.68;;;;;;;19.50;83.00;100354.75;1622127;86;21144;-68
2022/07/28 03:24:49;;;;;;;10.45;9.58;;;;;;;19.50;83.39;100349.34;1645562;86;21150;-67
2022/07/28 03:27:39;;;;;;;15.10;13.50;;;;;;;19.43;83.21;100352.20;1644286;86;21102;-68
2022/07/28 03:30:11;;;;;;;15.88;14.28;;;;;;;19.35;82.85;100347.22;1641037;86;21831;-66
2022/07/28 03:32:51;;;;;;;16.12;14.53;;;;;;;19.17;83.65;100344.22;1646447;86;21080;-68
2022/07/28 03:35:19;;;;;;;18.40;15.95;;;;;;;19.09;84.17;100345.98;1666718;84;21002;-69
2022/07/28 03:37:53;;;;;;;18.25;16.37;;;;;;;19.34;84.35;100341.52;1653881;84;21125;-68
2022/07/28 03:40:27;;;;;;;22.50;16.52;;;;;;;19.74;81.87;100341.35;1621230;87;21058;-69
2022/07/28 03:42:56;;;;;;;21.62;16.93;;;;;;;20.14;80.54;100346.20;1646895;85;21018;-73
2022/07/28 03:45:23;;;;;;;25.12;20.25;;;;;;;20.59;78.55;100343.74;1638099;85;21010;-73
2022/07/28 03:47:56;;;;;;;24.20;19.27;;;;;;;21.12;75.74;100346.16;1644637;85;21034;-71
2022/07/28 03:50:25;;;;;;;20.57;18.55;;;;;;;21.54;73.28;100354.91;1647074;85;21141;-73
2022/07/28 03:52:53;;;;;;;27.30;18.90;;;;;;;21.98;70.75;100355.16;1648880;85;21550;-72
2022/07/28 03:55:21;;;;;;;20.57;17.40;;;;;;;22.31;68.76;100360.77;1644701;85;20977;-73
2022/07/28 03:57:47;;;;;;;21.12;17.32;;;;;;;22.65;67.81;100358.16;1640157;86;21205;-73
2022/07/28 04:00:16;;;;;;;20.62;18.48;;;;;;;23.06;65.10;100349.55;1633192;86;21062;-73
2022/07/28 04:02:43;;;;;;;18.60;16.60;;;;;;;23.30;64.25;100359.87;1652087;85;21072;-72
2022/07/28 04:05:13;;;;;;;20.20;18.07;;;;;;;23.52;63.04;100359.03;1647135;85;22301;-70
2022/07/28 04:07:42;;;;;;;21.42;17.50;;;;;;;23.78;62.65;100355.47;1627002;86;21112;-68
2022/07/28 04:10:13;;;;;;;18.48;16.50;;;;;;;24.14;61.04;100353.47;1630466;86;21175;-70
2022/07/28 04:12:54;;;;;;;16.67;14.85;;;;;;;24.44;59.82;100359.88;1642074;85;21012;-70
2022/07/28 04:15:22;;;;;;;14.07;12.13;;;;;;;24.69;58.26;100354.84;1625357;85;21057;-71
2022/07/28 04:17:53;;;;;;;14.68;12.43;;;;;;;24.89;57.17;100358.55;1627933;85;21071;-72
2022/07/28 04:20:23;;;;;;;22.80;11.33;;;;;;;25.11;55.98;100369.83;1636045;85;21540;-72
2022/07/28 04:22:54;;;;;;;11.45;10.38;;;;;;;25.34;55.30;100361.48;1653724;85;21088;-71
2022/07/28 04:25:24;;;;;;;10.45;9.45;;;;;;;25.62;54.46;100364.50;1656242;84;21160;-71
2022/07/28 04:27:51;;;;;;;10.05;9.05;;;;;;;25.61;53.61;100365.59;1673220;84;21466;-70
2022/07/28 04:30:23;;;;;;;10.10;9.13;;;;;;;25.48;54.08;100367.64;1670805;85;21543;-72
2022/07/28 04:32:53;;;;;;;9.23;8.33;;;;;;;25.39;53.95;100363.34;1664375;84;21097;-71
2022/07/28 04:35:26;;;;;;;9.40;8.05;;;;;;;25.30;54.23;100374.08;1628793;85;21031;-75
2022/07/28 04:37:57;;;;;;;9.80;6.83;;;;;;;25.43;53.66;100374.77;1606830;86;21565;-73
2022/07/28 04:40:21;;;;;;;9.33;6.35;;;;;;;25.55;53.19;100376.30;1636534;86;21073;-75
2022/07/28 04:42:47;;;;;;;8.80;5.55;;;;;;;25.41;53.53;100370.16;1639376;86;21070;-75
2022/07/28 04:45:13;;;;;;;4.85;4.37;;;;;;;25.44;53.68;100372.29;1640193;86;21029;-80
2022/07/28 04:47:40;;;;;;;6.50;4.03;;;;;;;25.70;52.82;100375.34;1640464;85;21030;-76
2022/07/28 04:50:09;;;;;;;3.05;2.87;;;;;;;25.95;51.31;100372.34;1627359;87;21141;-76
2022/07/28 04:52:37;;;;;;;7.92;1.95;;;;;;;26.00;51.25;100383.23;1646528;86;21010;-77
2022/07/28 04:55:05;;;;;;;3.40;1.00;;;;;;;26.15;50.50;100372.67;1641580;86;21014;-79
2022/07/28 04:57:34;;;;;;;1.35;1.25;;;;;;;26.44;48.70;100379.95;1641336;86;21081;-81
2022/07/28 05:00:00;;;;;;;2.08;0.50;;;;;;;26.49;47.80;100389.45;1637380;86;21021;-81
2022/07/28 05:02:27;;;;;;;3.37;0.42;;;;;;;26.39;47.71;100381.38;1655589;85;21570;-73
2022/07/28 05:04:53;;;;;;;6.58;0.45;;;;;;;26.29;47.97;100385.06;1659558;86;21101;-78
2022/07/28 05:07:19;;;;;;;2.30;1.27;;;;;;;26.25;48.76;100379.92;1657557;86;21549;-79
2022/07/28 05:09:46;;;;;;;3.17;0.40;;;;;;;26.15;47.79;100382.23;1659543;86;21085;-76
2022/07/28 05:12:11;;;;;;;1.07;0.35;;;;;;;26.08;48.74;100379.03;1641398;85;21136;-79
2022/07/28 05:14:38;;;;;;;1.80;0.30;;;;;;;26.11;45.77;100382.56;1618304;87;21023;-79
2022/07/28 05:17:06;;;;;;;1.47;0.13;;;;;;;26.06;44.77;100392.17;1579175;89;21551;-76
2022/07/28 05:19:33;;;;;;;0.80;0.25;;;;;;;25.58;45.57;100357.44;1608326;87;21070;-81
2022/07/28 05:21:59;;;;;;;0.47;0.17;;;;;;;25.55;45.58;100399.50;1609265;87;21117;-82
2022/07/28 05:24:26;;;;;;;2.00;0.50;;;;;;;25.30;47.24;100403.24;1630951;86;21555;-68
2022/07/28 05:26:52;;;;;;;0.28;0.10;;;;;;;25.19;47.92;100395.69;1666498;84;21058;-68
2022/07/28 05:29:18;;;;;;;2.02;0.20;;;;;;;25.27;47.46;100401.91;1673788;84;21043;-68
2022/07/28 05:31:45;;;;;;;1.75;0.20;;;;;;;25.12;47.43;100408.27;1676769;84;21051;-67
2022/07/28 05:34:11;;;;;;;1.25;0.62;;;;;;;24.82;48.76;100404.64;1680811;83;21073;-68
2022/07/28 05:36:38;;;;;;;0.70;0.15;;;;;;;24.84;49.62;100405.72;1682026;84;21697;-68
2022/07/28 05:39:04;;;;;;;1.30;0.30;;;;;;;25.09;48.38;100402.56;1669556;84;21022;-67
2022/07/28 05:41:30;;;;;;;1.35;0.33;;;;;;;25.18;48.04;100400.30;1682868;83;21076;-68
2022/07/28 05:43:57;;;;;;;4.97;0.40;;;;;;;25.34;47.65;100402.97;1675237;83;21337;-66
2022/07/28 05:46:23;;;;;;;1.75;0.30;;;;;;;25.54;47.25;100405.52;1667770;84;21721;-68
2022/07/28 05:48:50;;;;;;;0.88;0.30;;;;;;;25.52;46.04;100409.05;1674669;84;21118;-65
2022/07/28 05:51:17;;;;;;;3.10;1.22;;;;;;;25.25;46.85;100413.66;1677037;84;21062;-67
2022/07/28 05:53:43;;;;;;;0.62;0.53;;;;;;;25.02;46.91;100411.88;1678540;84;21050;-66
2022/07/28 05:56:11;;;;;;;3.58;0.90;;;;;;;24.94;47.74;100413.86;1672498;83;21381;-66
2022/07/28 05:58:38;;;;;;;0.93;0.62;;;;;;;25.03;48.58;100424.96;1662569;83;21577;-67
2022/07/28 06:01:04;;;;;;;1.42;0.55;;;;;;;25.35;47.64;100420.38;1661416;83;21065;-67
2022/07/28 06:03:33;;;;;;;1.17;1.02;;;;;;;25.50;47.22;100426.83;1650835;84;21054;-67
2022/07/28 06:06:04;;;;;;;1.00;0.55;;;;;;;25.51;47.62;100431.20;1659043;84;21070;-67
2022/07/28 06:08:32;;;;;;;0.60;0.25;;;;;;;25.65;47.12;100423.95;1673451;84;21170;-67
2022/07/28 06:10:58;;;;;;;3.60;0.50;;;;;;;25.90;45.91;100431.63;1671739;84;20999;-66
2022/07/28 06:13:24;;;;;;;1.60;0.30;;;;;;;25.72;45.87;100437.28;1686754;83;21091;-67
2022/07/28 06:15:51;;;;;;;1.27;0.40;;;;;;;25.50;46.76;100439.11;1689966;84;21148;-66
2022/07/28 06:18:20;;;;;;;1.22;0.50;;;;;;;25.42;47.56;100438.61;1682965;83;21524;-69
2022/07/28 06:20:49;;;;;;;2.40;0.30;;;;;;;25.53;48.31;100442.08;1689322;83;21106;-67
2022/07/28 06:23:20;;;;;;;1.42;0.68;;;;;;;25.72;48.00;100453.66;1691319;83;21053;-69
2022/07/28 06:25:51;;;;;;;1.07;0.40;;;;;;;25.83;46.96;100442.91;1686972;83;21105;-69
2022/07/28 06:28:18;;;;;;;0.70;0.45;;;;;;;25.98;45.85;100454.27;1690702;83;21097;-69
2022/07/28 06:30:47;;;;;;;1.25;0.42;;;;;;;25.95;46.58;100458.93;1678989;83;21180;-69
2022/07/28 06:33:17;;;;;;;1.45;0.53;;;;;;;25.88;45.38;100468.81;1683287;83;21057;-70
2022/07/28 06:35:45;;;;;;;1.12;0.42;;;;;;;25.66;45.79;100469.83;1671278;83;21096;-68
2022/07/28 06:38:11;;;;;;;3.45;0.68;;;;;;;25.50;45.30;100459.58;1677288;83;21128;-70
2022/07/28 06:40:41;;;;;;;2.42;0.68;;;;;;;25.52;45.32;100471.83;1685018;83;21062;-67
2022/07/28 06:43:09;;;;;;;4.78;0.62;;;;;;;25.53;45.05;100468.56;1689392;83;21522;-68
2022/07/28 06:45:35;;;;;;;1.77;0.68;;;;;;;25.58;44.86;100470.70;1668135;83;21037;-68
2022/07/28 06:48:02;;;;;;;3.12;0.30;;;;;;;25.81;44.93;100476.52;1680735;83;21062;-70
2022/07/28 06:50:28;;;;;;;3.80;0.20;;;;;;;25.78;43.48;100480.61;1688760;83;21580;-66
2022/07/28 06:52:56;;;;;;;5.22;0.47;;;;;;;25.67;44.16;100474.98;1682604;83;21029;-70
2022/07/28 06:55:25;;;;;;;1.32;0.20;;;;;;;25.44;44.73;100469.16;1669257;83;21117;-68
2022/07/28 06:57:51;;;;;;;4.80;2.27;;;;;;;25.35;45.11;100472.22;1681330;83;21057;-69
2022/07/28 07:00:17;;;;;;;1.45;0.65;;;;;;;25.45;46.03;100474.89;1675557;83;21113;-69
2022/07/28 07:02:44;;;;;;;12.30;0.78;;;;;;;25.62;44.91;100477.22;1691008;83;21176;-68
2022/07/28 07:05:11;;;;;;;2.15;0.57;;;;;;;25.57;44.35;100469.06;1691904;83;21037;-71
2022/07/28 07:07:39;;;;;;;1.37;0.30;;;;;;;25.62;44.49;100475.05;1685070;83;21038;-69
2022/07/28 07:10:08;;;;;;;2.55;0.78;;;;;;;25.77;43.83;100473.54;1666788;83;21474;-68
2022/07/28 07:12:35;;;;;;;0.90;0.85;;;;;;;25.92;43.48;100474.52;1682575;83;21059;-70
2022/07/28 07:15:06;;;;;;;1.12;0.40;;;;;;;26.00;43.46;100469.81;1695104;83;21027;-69
2022/07/28 07:17:36;;;;;;;1.02;0.30;;;;;;;26.17;43.16;100474.83;1674248;83;21102;-70
2022/07/28 07:20:08;;;;;;;1.40;0.35;;;;;;;26.23;42.53;100466.83;1690195;83;21649;-69
2022/07/28 07:22:42;;;;;;;6.37;1.12;;;;;;;26.15;43.00;100468.84;1692029;83;21038;-69
2022/07/28 07:25:15;;;;;;;1.50;0.75;;;;;;;26.28;43.02;100474.98;1679082;83;21026;-70
2022/07/28 07:27:42;;;;;;;2.58;0.90;;;;;;;26.28;43.02;100472.81;1688353;83;21026;-69
2022/07/28 07:30:11;;;;;;;3.12;1.37;;;;;;;26.28;42.81;100472.81;1683049;83;21184;-69
2022/07/28 07:32:37;;;;;;;3.17;1.20;;;;;;;26.26;43.24;100467.63;1692759;83;21585;-68
2022/07/28 07:35:07;;;;;;;0.90;0.70;;;;;;;26.20;42.94;100476.43;1690331;83;21117;-70
2022/07/28 07:37:35;;;;;;;5.10;3.52;;;;;;;26.00;42.78;100467.88;1670778;83;21159;-69
2022/07/28 07:40:07;;;;;;;1.75;0.60;;;;;;;25.81;43.88;100471.05;1688222;83;21552;-68
2022/07/28 07:42:34;;;;;;;1.07;0.30;;;;;;;25.70;43.60;100469.52;1688306;83;21112;-71
2022/07/28 07:45:01;;;;;;;2.08;0.60;;;;;;;25.53;43.99;100483.58;1689335;83;21115;-71
2022/07/28 07:47:29;;;;;;;1.57;0.90;;;;;;;25.30;43.97;100485.92;1674564;83;21049;-72
2022/07/28 07:49:55;;;;;;;1.80;0.85;;;;;;;25.14;44.38;100487.08;1683299;83;21048;-71
2022/07/28 07:52:21;;;;;;;0.82;0.45;;;;;;;25.02;44.47;100484.14;1693092;83;21085;-70
2022/07/28 07:54:48;;;;;;;2.52;0.23;;;;;;;24.99;45.11;100489.34;1681717;83;20997;-68
2022/07/28 07:57:14;;;;;;;3.22;0.37;;;;;;;24.95;44.51;100497.27;1685287;81;21117;-69
2022/07/28 07:59:40;;;;;;;2.35;0.68;;;;;;;24.82;42.53;100491.87;1685815;83;21864;-69
2022/07/28 08:02:06;;;;;;;4.83;2.10;;;;;;;24.59;42.93;100483.80;1681799;83;21615;-69
2022/07/28 08:04:33;;;;;;;2.02;0.65;;;;;;;24.48;42.49;100487.63;1688736;83;21088;-70
2022/07/28 08:06:59;;;;;;;2.27;0.42;;;;;;;24.45;42.89;100484.92;1653632;85;21185;-69
2022/07/28 08:09:27;;;;;;;2.20;0.30;;;;;;;24.47;42.21;100496.35;1637834;86;21119;-68
2022/07/28 08:11:54;;;;;;;3.60;0.47;;;;;;;24.42;42.42;100496.91;1639263;85;21065;-68
2022/07/28 08:14:21;;;;;;;3.52;2.67;;;;;;;24.30;42.96;100489.05;1677905;83;21089;-69
2022/07/28 08:16:47;;;;;;;1.72;0.37;;;;;;;24.28;43.07;100486.59;1692792;84;21037;-69
2022/07/28 08:19:13;;;;;;;1.80;1.70;;;;;;;24.23;42.98;100491.24;1691149;83;22202;-71
2022/07/28 08:21:40;;;;;;;1.20;0.20;;;;;;;24.16;43.53;100497.52;1677206;84;21141;-69
2022/07/28 08:24:08;;;;;;;1.55;0.45;;;;;;;24.16;42.30;100503.77;1672615;83;21040;-71
2022/07/28 08:26:34;;;;;;;3.22;0.50;;;;;;;24.09;42.45;100495.90;1690764;83;21135;-68
2022/07/28 08:29:00;;;;;;;7.37;1.70;;;;;;;24.07;42.57;100497.25;1681097;83;21089;-69
2022/07/28 08:31:27;;;;;;;4.37;1.90;;;;;;;24.13;41.27;100511.15;1639150;86;21146;-70
2022/07/28 08:33:53;;;;;;;3.30;2.42;;;;;;;24.08;41.04;100490.72;1662234;83;21538;-68
2022/07/28 08:36:19;;;;;;;4.10;2.62;;;;;;;24.04;41.07;100504.06;1627919;86;21043;-70
2022/07/28 08:38:48;;;;;;;3.45;3.25;;;;;;;24.04;41.71;100495.09;1647902;86;21165;-69
2022/07/28 08:41:25;;;;;;;7.47;2.62;;;;;;;24.08;42.83;100494.25;1681669;83;21591;-67
2022/07/28 08:43:53;;;;;;;1.67;1.05;;;;;;;24.16;42.79;100499.69;1686833;83;22183;-69
2022/07/28 08:46:23;;;;;;;2.60;0.78;;;;;;;24.15;43.14;100500.80;1677371;82;21037;-69
2022/07/28 08:48:50;;;;;;;2.00;1.20;;;;;;;24.06;43.07;100505.97;1687048;83;21848;-69
2022/07/28 08:51:18;;;;;;;2.58;0.62;;;;;;;23.87;42.24;100513.88;1678099;83;21592;-69
2022/07/28 08:53:45;;;;;;;2.12;0.75;;;;;;;23.74;42.03;100494.54;1679636;83;21947;-69
2022/07/28 08:56:14;;;;;;;3.17;1.72;;;;;;;23.65;42.57;100503.78;1688817;82;21037;-68
2022/07/28 08:58:42;;;;;;;1.35;0.85;;;;;;;23.63;43.16;100503.23;1676019;83;21098;-67
2022/07/28 09:01:12;;;;;;;2.10;0.93;;;;;;;23.69;43.66;100506.22;1691814;82;21675;-67
2022/07/28 09:03:38;;;;;;;3.87;0.95;;;;;;;23.77;42.63;100505.70;1689830;83;21533;-68
2022/07/28 09:06:05;;;;;;;2.17;0.80;;;;;;;23.75;42.52;100499.69;1676726;83;21071;-70
2022/07/28 09:08:32;;;;;;;2.58;0.82;;;;;;;23.78;42.53;100499.16;1671820;85;21029;-70
2022/07/28 09:11:00;;;;;;;1.45;0.40;;;;;;;23.93;42.88;100501.64;1678405;83;21029;-69
2022/07/28 09:13:27;;;;;;;2.52;0.80;;;;;;;24.12;42.39;100499.97;1632526;86;21153;-70
2022/07/28 09:15:53;;;;;;;1.70;0.47;;;;;;;24.23;42.23;100503.50;1654211;86;21145;-69
2022/07/28 09:18:19;;;;;;;2.70;0.60;;;;;;;24.31;42.64;100492.59;1681952;85;21509;-70
2022/07/28 09:20:45;;;;;;;4.42;1.17;;;;;;;24.39;42.25;100502.91;1683085;83;21049;-69
2022/07/28 09:23:12;;;;;;;5.10;0.70;;;;;;;24.35;42.10;100495.83;1676424;82;21121;-68
2022/07/28 09:25:38;;;;;;;9.28;8.33;;;;;;;24.35;42.54;100501.27;1659339;84;21014;-70
2022/07/28 09:28:15;;;;;;;1.95;1.57;;;;;;;24.43;42.31;100501.25;1658895;84;21119;-69
2022/07/28 09:30:45;;;;;;;4.62;0.70;;;;;;;24.49;41.79;100513.23;1670263;84;20999;-68
2022/07/28 09:33:26;;;;;;;1.67;0.37;;;;;;;24.47;41.44;100516.78;1661613;82;21002;-70
2022/07/28 09:35:56;;;;;;;3.00;2.12;;;;;;;24.42;41.66;100506.45;1689267;84;21693;-69
2022/07/28 09:38:25;;;;;;;2.75;1.10;;;;;;;24.43;42.77;100511.63;1683689;83;21053;-69
2022/07/28 09:41:05;;;;;;;1.12;0.78;;;;;;;24.52;42.00;100508.35;1675626;83;21015;-69
2022/07/28 09:43:38;;;;;;;2.02;1.00;;;;;;;24.58;41.73;100512.16;1699288;83;21582;-70
2022/07/28 09:46:11;;;;;;;1.85;0.98;;;;;;;24.65;41.47;100509.13;1660416;84;21072;-70
2022/07/28 09:48:58;;;;;;;0.82;0.30;;;;;;;24.68;40.13;100512.11;1660108;85;21065;-69
2022/07/28 09:51:34;;;;;;;3.90;0.70;;;;;;;24.64;39.77;100510.23;1652497;85;21081;-67
2022/07/28 09:54:13;;;;;;;2.67;0.60;;;;;;;24.60;39.96;100518.67;1652764;85;21069;-68
2022/07/28 09:56:43;;;;;;;4.62;0.62;;;;;;;24.58;40.60;100513.52;1649104;84;21033;-68
2022/07/28 09:59:11;;;;;;;3.75;1.45;;;;;;;24.61;40.12;100510.22;1684459;83;21041;-68
2022/07/28 10:02:00;;;;;;;1.92;1.07;;;;;;;24.64;40.59;100506.14;1682717;83;21002;-69
2022/07/28 10:04:38;;;;;;;3.25;1.12;;;;;;;24.69;40.70;100508.83;1680755;83;21542;-65
2022/07/28 10:07:15;;;;;;;3.52;1.20;;;;;;;24.76;39.61;100499.81;1678066;83;21054;-70
2022/07/28 10:09:43;;;;;;;2.65;0.82;;;;;;;24.80;39.84;100507.69;1687170;83;20998;-69
2022/07/28 10:12:25;;;;;;;1.72;0.55;;;;;;;24.85;39.31;100517.77;1646290;84;21049;-68
2022/07/28 10:14:55;;;;;;;4.00;2.55;;;;;;;24.84;39.20;100509.31;1657143;85;21074;-69
2022/07/28 10:17:26;;;;;;;6.35;5.70;;;;;;;24.84;40.08;100506.03;1682750;83;21537;-68
2022/07/28 10:20:04;;;;;;;3.60;3.40;;;;;;;24.94;40.71;100506.55;1647909;85;21794;-69
2022/07/28 10:22:36;;;;;;;5.62;5.15;;;;;;;25.07;39.34;100511.92;1644463;85;21050;-69
2022/07/28 10:25:08;;;;;;;1.80;0.62;;;;;;;25.15;39.90;100514.08;1710276;83;21042;-70
2022/07/28 10:27:36;;;;;;;0.85;0.68;;;;;;;25.24;39.22;100513.78;1708550;82;21588;-67
2022/07/28 10:30:05;;;;;;;4.00;2.85;;;;;;;25.29;38.44;100508.83;1703585;83;21170;-71
2022/07/28 10:32:37;;;;;;;1.85;1.70;;;;;;;25.30;38.56;100506.91;1698628;82;21093;-70
2022/07/28 10:35:15;;;;;;;2.10;0.65;;;;;;;25.27;38.49;100506.13;1712408;82;21548;-68
2022/07/28 10:37:58;;;;;;;2.85;0.65;;;;;;;25.18;38.12;100513.49;1666776;84;21693;-70
2022/07/28 10:40:30;;;;;;;3.58;1.20;;;;;;;25.14;38.95;100506.97;1694071;82;22308;-69
2022/07/28 10:42:58;;;;;;;2.02;1.05;;;;;;;25.18;38.86;100497.69;1690049;83;21030;-68
2022/07/28 10:45:26;;;;;;;2.22;0.98;;;;;;;25.24;38.42;100510.22;1708853;82;21002;-68
2022/07/28 10:47:55;;;;;;;3.37;1.12;;;;;;;25.27;38.40;100502.84;1698708;84;21058;-69
2022/07/28 10:50:23;;;;;;;2.77;0.95;;;;;;;25.31;38.27;100504.45;1703799;82;21038;-70
2022/07/28 10:52:50;;;;;;;1.57;0.70;;;;;;;25.34;38.03;100507.44;1700778;84;21053;-70
2022/07/28 10:55:29;;;;;;;0.98;0.45;;;;;;;25.37;38.11;100501.43;1712787;82;21086;-68
2022/07/28 10:58:20;;;;;;;2.55;1.50;;;;;;;25.39;38.01;100506.58;1687741;82;21574;-69
2022/07/28 11:00:50;;;;;;;2.17;0.55;;;;;;;25.39;38.07;100508.78;1662176;84;21107;-68
2022/07/28 11:03:41;;;;;;;8.03;0.62;;;;;;;25.36;37.61;100514.80;1714746;82;21087;-68
2022/07/28 11:06:35;;;;;;;2.47;0.90;;;;;;;25.25;37.27;100515.95;1701706;83;21078;-68
2022/07/28 11:09:21;;;;;;;6.22;2.30;;;;;;;25.08;37.30;100514.13;1699904;82;21103;-69
2022/07/28 11:11:53;;;;;;;2.22;1.47;;;;;;;24.94;37.81;100507.08;1698698;82;21054;-69
2022/07/28 11:14:34;;;;;;;5.03;1.77;;;;;;;24.96;38.46;100508.98;1694532;82;21097;-69
2022/07/28 11:17:06;;;;;;;1.77;0.62;;;;;;;25.03;38.53;100500.78;1697003;83;21062;-68
2022/07/28 11:19:50;;;;;;;1.92;0.98;;;;;;;25.11;38.25;100508.08;1697132;82;21065;-69
2022/07/28 11:22:21;;;;;;;1.92;1.20;;;;;;;25.14;38.09;100508.34;1714177;82;21042;-67
2022/07/28 11:25:03;;;;;;;1.17;0.40;;;;;;;25.14;37.73;100506.97;1696070;82;21078;-68
2022/07/28 11:27:50;;;;;;;2.05;0.72;;;;;;;25.09;37.85;100500.21;1699290;83;21035;-68
2022/07/28 11:30:35;;;;;;;1.82;0.60;;;;;;;25.02;38.22;100499.70;1701840;82;21138;-69
2022/07/28 11:33:04;;;;;;;2.42;0.70;;;;;;;25.08;38.52;100495.03;1698568;83;21026;-66
2022/07/28 11:35:43;;;;;;;3.80;0.90;;;;;;;25.17;38.25;100492.78;1686664;83;21578;-69
2022/07/28 11:38:12;;;;;;;3.25;1.57;;;;;;;25.22;37.98;100498.22;1691583;83;21070;-68
2022/07/28 11:40:50;;;;;;;3.47;1.62;;;;;;;25.20;38.51;100487.30;1708961;82;21047;-69
2022/07/28 11:43:25;;;;;;;4.30;2.42;;;;;;;25.19;37.94;100492.51;1706583;83;21262;-67